sensor_id;sensor_type;location;lat;lon;timestamp;P1;durP1;ratioP1;P2;durP2;ratioP2
37241;SDS011;23135;51.078;12.108;2023-05-07T00:01:43;15.93;;;9.77;;
37241;SDS011;23135;51.078;12.108;2023-05-07T00:04:09;15.48;;;9.75;;
37241;SDS011;23135;51.078;12.108;2023-05-07T00:06:35;11.02;;;8.23;;
37241;SDS011;23135;51.078;12.108;2023-05-07T00:09:01;11.75;;;8.27;;
37241;SDS011;23135;51.078;12.108;2023-05-07T00:11:28;15.18;;;8.38;;
37241;SDS011;23135;51.078;12.108;2023-05-07T00:13:53;12.68;;;8.18;;
37241;SDS011;23135;51.078;12.108;2023-05-07T00:16:19;11.93;;;7.85;;
37241;SDS011;23135;51.078;12.108;2023-05-07T00:18:45;15.00;;;9.30;;
37241;SDS011;23135;51.078;12.108;2023-05-07T00:21:10;14.93;;;9.57;;
37241;SDS011;23135;51.078;12.108;2023-05-07T00:23:36;14.38;;;8.27;;
37241;SDS011;23135;51.078;12.108;2023-05-07T00:26:02;16.80;;;8.73;;
37241;SDS011;23135;51.078;12.108;2023-05-07T00:28:28;15.82;;;8.95;;
37241;SDS011;23135;51.078;12.108;2023-05-07T00:30:54;20.35;;;9.23;;
37241;SDS011;23135;51.078;12.108;2023-05-07T00:33:19;14.73;;;8.77;;
37241;SDS011;23135;51.078;12.108;2023-05-07T00:35:45;14.27;;;7.78;;
37241;SDS011;23135;51.078;12.108;2023-05-07T00:38:11;13.32;;;8.02;;
37241;SDS011;23135;51.078;12.108;2023-05-07T00:40:37;13.02;;;8.45;;
37241;SDS011;23135;51.078;12.108;2023-05-07T00:43:02;16.35;;;7.70;;
37241;SDS011;23135;51.078;12.108;2023-05-07T00:45:28;13.45;;;8.02;;
37241;SDS011;23135;51.078;12.108;2023-05-07T00:47:55;13.02;;;6.97;;
37241;SDS011;23135;51.078;12.108;2023-05-07T00:50:22;11.75;;;7.93;;
37241;SDS011;23135;51.078;12.108;2023-05-07T00:52:48;9.60;;;6.93;;
37241;SDS011;23135;51.078;12.108;2023-05-07T00:55:14;12.32;;;7.35;;
37241;SDS011;23135;51.078;12.108;2023-05-07T00:57:40;12.95;;;8.32;;
37241;SDS011;23135;51.078;12.108;2023-05-07T01:00:07;13.18;;;7.72;;
37241;SDS011;23135;51.078;12.108;2023-05-07T01:02:34;9.25;;;7.45;;
37241;SDS011;23135;51.078;12.108;2023-05-07T01:05:01;10.32;;;7.75;;
37241;SDS011;23135;51.078;12.108;2023-05-07T01:07:29;13.73;;;8.68;;
37241;SDS011;23135;51.078;12.108;2023-05-07T01:09:56;17.00;;;10.18;;
37241;SDS011;23135;51.078;12.108;2023-05-07T01:12:23;15.32;;;10.50;;
37241;SDS011;23135;51.078;12.108;2023-05-07T01:14:50;19.15;;;12.95;;
37241;SDS011;23135;51.078;12.108;2023-05-07T01:17:16;21.98;;;13.18;;
37241;SDS011;23135;51.078;12.108;2023-05-07T01:19:42;22.52;;;14.02;;
37241;SDS011;23135;51.078;12.108;2023-05-07T01:22:09;21.00;;;14.18;;
37241;SDS011;23135;51.078;12.108;2023-05-07T01:24:36;27.08;;;16.20;;
37241;SDS011;23135;51.078;12.108;2023-05-07T01:27:02;23.20;;;15.15;;
37241;SDS011;23135;51.078;12.108;2023-05-07T01:29:28;23.15;;;13.13;;
37241;SDS011;23135;51.078;12.108;2023-05-07T01:31:54;23.50;;;13.38;;
37241;SDS011;23135;51.078;12.108;2023-05-07T01:34:22;24.85;;;13.80;;
37241;SDS011;23135;51.078;12.108;2023-05-07T01:36:49;33.00;;;16.90;;
37241;SDS011;23135;51.078;12.108;2023-05-07T01:39:15;23.48;;;14.50;;
37241;SDS011;23135;51.078;12.108;2023-05-07T01:41:42;22.05;;;14.70;;
37241;SDS011;23135;51.078;12.108;2023-05-07T01:44:08;22.25;;;14.15;;
37241;SDS011;23135;51.078;12.108;2023-05-07T01:46:37;22.75;;;13.68;;
37241;SDS011;23135;51.078;12.108;2023-05-07T01:49:02;21.20;;;14.25;;
37241;SDS011;23135;51.078;12.108;2023-05-07T01:51:29;28.23;;;13.32;;
37241;SDS011;23135;51.078;12.108;2023-05-07T01:53:55;21.48;;;14.55;;
37241;SDS011;23135;51.078;12.108;2023-05-07T01:56:21;25.27;;;13.98;;
37241;SDS011;23135;51.078;12.108;2023-05-07T01:58:46;25.88;;;15.20;;
37241;SDS011;23135;51.078;12.108;2023-05-07T02:01:13;22.20;;;14.10;;
37241;SDS011;23135;51.078;12.108;2023-05-07T02:03:38;23.08;;;13.93;;
37241;SDS011;23135;51.078;12.108;2023-05-07T02:06:04;25.95;;;15.05;;
37241;SDS011;23135;51.078;12.108;2023-05-07T02:08:30;21.10;;;13.52;;
37241;SDS011;23135;51.078;12.108;2023-05-07T02:10:56;26.42;;;14.77;;
37241;SDS011;23135;51.078;12.108;2023-05-07T02:13:21;21.20;;;13.90;;
37241;SDS011;23135;51.078;12.108;2023-05-07T02:15:49;22.65;;;14.20;;
37241;SDS011;23135;51.078;12.108;2023-05-07T02:18:16;21.48;;;13.60;;
37241;SDS011;23135;51.078;12.108;2023-05-07T02:20:42;22.77;;;13.65;;
37241;SDS011;23135;51.078;12.108;2023-05-07T02:23:07;26.98;;;13.77;;
37241;SDS011;23135;51.078;12.108;2023-05-07T02:25:33;21.73;;;13.68;;
37241;SDS011;23135;51.078;12.108;2023-05-07T02:27:59;21.88;;;13.00;;
37241;SDS011;23135;51.078;12.108;2023-05-07T02:30:25;20.50;;;12.20;;
37241;SDS011;23135;51.078;12.108;2023-05-07T02:32:51;22.05;;;13.07;;
37241;SDS011;23135;51.078;12.108;2023-05-07T02:35:17;21.33;;;13.27;;
37241;SDS011;23135;51.078;12.108;2023-05-07T02:37:43;23.10;;;12.68;;
37241;SDS011;23135;51.078;12.108;2023-05-07T02:40:09;22.33;;;12.48;;
37241;SDS011;23135;51.078;12.108;2023-05-07T02:42:36;21.00;;;12.27;;
37241;SDS011;23135;51.078;12.108;2023-05-07T02:45:01;28.95;;;14.00;;
37241;SDS011;23135;51.078;12.108;2023-05-07T02:47:27;20.55;;;11.43;;
37241;SDS011;23135;51.078;12.108;2023-05-07T02:49:53;22.85;;;13.57;;
37241;SDS011;23135;51.078;12.108;2023-05-07T02:52:19;19.10;;;12.60;;
37241;SDS011;23135;51.078;12.108;2023-05-07T02:54:45;22.20;;;12.70;;
37241;SDS011;23135;51.078;12.108;2023-05-07T02:57:11;24.23;;;13.52;;
37241;SDS011;23135;51.078;12.108;2023-05-07T02:59:36;20.35;;;13.75;;
37241;SDS011;23135;51.078;12.108;2023-05-07T03:02:02;22.13;;;12.32;;
37241;SDS011;23135;51.078;12.108;2023-05-07T03:04:27;19.70;;;11.38;;
37241;SDS011;23135;51.078;12.108;2023-05-07T03:06:53;21.20;;;12.65;;
37241;SDS011;23135;51.078;12.108;2023-05-07T03:09:18;24.55;;;13.95;;
37241;SDS011;23135;51.078;12.108;2023-05-07T03:11:44;24.17;;;14.90;;
37241;SDS011;23135;51.078;12.108;2023-05-07T03:14:09;22.50;;;13.13;;
37241;SDS011;23135;51.078;12.108;2023-05-07T03:16:35;23.23;;;13.95;;
37241;SDS011;23135;51.078;12.108;2023-05-07T03:19:01;21.45;;;13.02;;
37241;SDS011;23135;51.078;12.108;2023-05-07T03:21:26;25.05;;;14.02;;
37241;SDS011;23135;51.078;12.108;2023-05-07T03:23:52;24.63;;;14.15;;
37241;SDS011;23135;51.078;12.108;2023-05-07T03:26:18;26.60;;;13.88;;
37241;SDS011;23135;51.078;12.108;2023-05-07T03:28:43;22.52;;;13.93;;
37241;SDS011;23135;51.078;12.108;2023-05-07T03:31:09;22.85;;;14.23;;
37241;SDS011;23135;51.078;12.108;2023-05-07T03:33:34;21.88;;;14.40;;
37241;SDS011;23135;51.078;12.108;2023-05-07T03:36:00;25.70;;;14.30;;
37241;SDS011;23135;51.078;12.108;2023-05-07T03:38:26;26.48;;;14.55;;
37241;SDS011;23135;51.078;12.108;2023-05-07T03:40:52;28.27;;;15.15;;
37241;SDS011;23135;51.078;12.108;2023-05-07T03:43:17;24.58;;;15.95;;
37241;SDS011;23135;51.078;12.108;2023-05-07T03:45:43;28.88;;;15.55;;
37241;SDS011;23135;51.078;12.108;2023-05-07T03:48:08;27.08;;;15.90;;
37241;SDS011;23135;51.078;12.108;2023-05-07T03:50:34;27.20;;;15.52;;
37241;SDS011;23135;51.078;12.108;2023-05-07T03:53:00;23.92;;;15.25;;
37241;SDS011;23135;51.078;12.108;2023-05-07T03:55:25;28.02;;;16.83;;
37241;SDS011;23135;51.078;12.108;2023-05-07T03:57:51;28.70;;;18.33;;
37241;SDS011;23135;51.078;12.108;2023-05-07T04:00:17;31.08;;;17.80;;
37241;SDS011;23135;51.078;12.108;2023-05-07T04:02:42;30.92;;;17.67;;
37241;SDS011;23135;51.078;12.108;2023-05-07T04:05:08;30.13;;;18.55;;
37241;SDS011;23135;51.078;12.108;2023-05-07T04:07:34;25.55;;;17.15;;
37241;SDS011;23135;51.078;12.108;2023-05-07T04:09:59;35.20;;;17.95;;
37241;SDS011;23135;51.078;12.108;2023-05-07T04:12:25;28.75;;;17.02;;
37241;SDS011;23135;51.078;12.108;2023-05-07T04:14:51;34.08;;;19.85;;
37241;SDS011;23135;51.078;12.108;2023-05-07T04:17:16;35.45;;;19.00;;
37241;SDS011;23135;51.078;12.108;2023-05-07T04:19:42;32.03;;;18.80;;
37241;SDS011;23135;51.078;12.108;2023-05-07T04:22:10;34.60;;;18.63;;
37241;SDS011;23135;51.078;12.108;2023-05-07T04:24:36;32.13;;;18.80;;
37241;SDS011;23135;51.078;12.108;2023-05-07T04:27:02;30.55;;;19.08;;
37241;SDS011;23135;51.078;12.108;2023-05-07T04:29:27;27.67;;;17.35;;
37241;SDS011;23135;51.078;12.108;2023-05-07T04:31:53;34.85;;;17.65;;
37241;SDS011;23135;51.078;12.108;2023-05-07T04:34:21;29.25;;;17.92;;
37241;SDS011;23135;51.078;12.108;2023-05-07T04:36:47;41.65;;;20.02;;
37241;SDS011;23135;51.078;12.108;2023-05-07T04:39:13;30.75;;;19.42;;
37241;SDS011;23135;51.078;12.108;2023-05-07T04:41:38;33.13;;;18.75;;
37241;SDS011;23135;51.078;12.108;2023-05-07T04:44:04;33.55;;;19.70;;
37241;SDS011;23135;51.078;12.108;2023-05-07T04:46:31;31.60;;;18.63;;
37241;SDS011;23135;51.078;12.108;2023-05-07T04:48:57;30.42;;;19.52;;
37241;SDS011;23135;51.078;12.108;2023-05-07T04:51:22;32.08;;;19.17;;
37241;SDS011;23135;51.078;12.108;2023-05-07T04:53:48;28.90;;;18.67;;
37241;SDS011;23135;51.078;12.108;2023-05-07T04:56:14;29.25;;;18.48;;
37241;SDS011;23135;51.078;12.108;2023-05-07T04:58:39;32.30;;;18.98;;
37241;SDS011;23135;51.078;12.108;2023-05-07T05:01:05;31.23;;;19.27;;
37241;SDS011;23135;51.078;12.108;2023-05-07T05:03:31;32.50;;;19.13;;
37241;SDS011;23135;51.078;12.108;2023-05-07T05:05:56;30.83;;;18.88;;
37241;SDS011;23135;51.078;12.108;2023-05-07T05:08:24;31.30;;;19.65;;
37241;SDS011;23135;51.078;12.108;2023-05-07T05:10:50;32.85;;;20.05;;
37241;SDS011;23135;51.078;12.108;2023-05-07T05:13:15;28.15;;;18.70;;
37241;SDS011;23135;51.078;12.108;2023-05-07T05:15:41;29.90;;;18.58;;
37241;SDS011;23135;51.078;12.108;2023-05-07T05:18:07;27.67;;;17.58;;
37241;SDS011;23135;51.078;12.108;2023-05-07T05:20:32;28.98;;;17.02;;
37241;SDS011;23135;51.078;12.108;2023-05-07T05:22:58;27.40;;;17.42;;
37241;SDS011;23135;51.078;12.108;2023-05-07T05:25:23;27.27;;;17.05;;
37241;SDS011;23135;51.078;12.108;2023-05-07T05:27:49;27.42;;;16.42;;
37241;SDS011;23135;51.078;12.108;2023-05-07T05:30:15;24.17;;;15.02;;
37241;SDS011;23135;51.078;12.108;2023-05-07T05:32:40;28.08;;;17.20;;
37241;SDS011;23135;51.078;12.108;2023-05-07T05:35:06;27.23;;;17.65;;
37241;SDS011;23135;51.078;12.108;2023-05-07T05:37:32;29.90;;;16.48;;
37241;SDS011;23135;51.078;12.108;2023-05-07T05:39:57;26.38;;;16.65;;
37241;SDS011;23135;51.078;12.108;2023-05-07T05:42:23;30.15;;;17.42;;
37241;SDS011;23135;51.078;12.108;2023-05-07T05:44:48;27.90;;;16.52;;
37241;SDS011;23135;51.078;12.108;2023-05-07T05:47:14;22.20;;;16.05;;
37241;SDS011;23135;51.078;12.108;2023-05-07T05:49:40;24.52;;;14.90;;
37241;SDS011;23135;51.078;12.108;2023-05-07T05:52:05;23.67;;;15.05;;
37241;SDS011;23135;51.078;12.108;2023-05-07T05:54:31;21.75;;;13.43;;
37241;SDS011;23135;51.078;12.108;2023-05-07T05:56:56;23.30;;;11.95;;
37241;SDS011;23135;51.078;12.108;2023-05-07T05:59:22;21.60;;;12.27;;
37241;SDS011;23135;51.078;12.108;2023-05-07T06:01:48;18.67;;;12.65;;
37241;SDS011;23135;51.078;12.108;2023-05-07T06:04:13;20.45;;;12.80;;
37241;SDS011;23135;51.078;12.108;2023-05-07T06:06:39;19.80;;;13.32;;
37241;SDS011;23135;51.078;12.108;2023-05-07T06:09:05;20.55;;;12.20;;
37241;SDS011;23135;51.078;12.108;2023-05-07T06:11:31;20.15;;;12.70;;
37241;SDS011;23135;51.078;12.108;2023-05-07T06:13:57;20.63;;;12.27;;
37241;SDS011;23135;51.078;12.108;2023-05-07T06:16:24;20.80;;;14.02;;
37241;SDS011;23135;51.078;12.108;2023-05-07T06:18:50;19.75;;;12.30;;
37241;SDS011;23135;51.078;12.108;2023-05-07T06:21:15;22.63;;;12.88;;
37241;SDS011;23135;51.078;12.108;2023-05-07T06:23:41;19.20;;;11.27;;
37241;SDS011;23135;51.078;12.108;2023-05-07T06:26:07;20.98;;;12.63;;
37241;SDS011;23135;51.078;12.108;2023-05-07T06:28:32;19.73;;;13.15;;
37241;SDS011;23135;51.078;12.108;2023-05-07T06:31:10;18.67;;;12.68;;
37241;SDS011;23135;51.078;12.108;2023-05-07T06:33:39;17.17;;;12.30;;
37241;SDS011;23135;51.078;12.108;2023-05-07T06:36:05;15.93;;;11.10;;
37241;SDS011;23135;51.078;12.108;2023-05-07T06:38:31;20.45;;;13.73;;
37241;SDS011;23135;51.078;12.108;2023-05-07T06:40:57;18.02;;;12.95;;
37241;SDS011;23135;51.078;12.108;2023-05-07T06:43:22;23.33;;;12.25;;
37241;SDS011;23135;51.078;12.108;2023-05-07T06:45:48;18.38;;;11.60;;
37241;SDS011;23135;51.078;12.108;2023-05-07T06:48:13;22.05;;;13.25;;
37241;SDS011;23135;51.078;12.108;2023-05-07T06:50:39;16.10;;;11.90;;
37241;SDS011;23135;51.078;12.108;2023-05-07T06:53:05;22.83;;;12.02;;
37241;SDS011;23135;51.078;12.108;2023-05-07T06:55:30;15.90;;;10.82;;
37241;SDS011;23135;51.078;12.108;2023-05-07T06:57:56;19.85;;;12.30;;
37241;SDS011;23135;51.078;12.108;2023-05-07T07:00:25;16.65;;;11.43;;
37241;SDS011;23135;51.078;12.108;2023-05-07T07:02:51;18.65;;;11.20;;
37241;SDS011;23135;51.078;12.108;2023-05-07T07:05:17;19.08;;;12.15;;
37241;SDS011;23135;51.078;12.108;2023-05-07T07:07:43;19.88;;;12.02;;
37241;SDS011;23135;51.078;12.108;2023-05-07T07:10:09;16.17;;;11.57;;
37241;SDS011;23135;51.078;12.108;2023-05-07T07:12:35;14.35;;;10.90;;
37241;SDS011;23135;51.078;12.108;2023-05-07T07:15:00;18.85;;;11.43;;
37241;SDS011;23135;51.078;12.108;2023-05-07T07:17:26;17.27;;;11.88;;
37241;SDS011;23135;51.078;12.108;2023-05-07T07:19:52;17.63;;;11.25;;
37241;SDS011;23135;51.078;12.108;2023-05-07T07:22:17;16.35;;;10.57;;
37241;SDS011;23135;51.078;12.108;2023-05-07T07:24:43;15.57;;;11.02;;
37241;SDS011;23135;51.078;12.108;2023-05-07T07:27:08;15.27;;;10.52;;
37241;SDS011;23135;51.078;12.108;2023-05-07T07:29:34;14.52;;;9.35;;
37241;SDS011;23135;51.078;12.108;2023-05-07T07:32:00;14.68;;;10.80;;
37241;SDS011;23135;51.078;12.108;2023-05-07T07:34:25;17.25;;;9.90;;
37241;SDS011;23135;51.078;12.108;2023-05-07T07:36:51;15.85;;;10.00;;
37241;SDS011;23135;51.078;12.108;2023-05-07T07:39:16;21.02;;;10.48;;
37241;SDS011;23135;51.078;12.108;2023-05-07T07:41:42;15.27;;;9.80;;
37241;SDS011;23135;51.078;12.108;2023-05-07T07:44:08;16.45;;;9.52;;
37241;SDS011;23135;51.078;12.108;2023-05-07T07:46:34;17.33;;;10.05;;
37241;SDS011;23135;51.078;12.108;2023-05-07T07:49:00;12.45;;;9.20;;
37241;SDS011;23135;51.078;12.108;2023-05-07T07:51:25;12.82;;;8.55;;
37241;SDS011;23135;51.078;12.108;2023-05-07T07:53:51;14.32;;;9.23;;
37241;SDS011;23135;51.078;12.108;2023-05-07T07:56:17;13.65;;;8.55;;
37241;SDS011;23135;51.078;12.108;2023-05-07T07:58:42;12.05;;;8.63;;
37241;SDS011;23135;51.078;12.108;2023-05-07T08:01:08;12.50;;;7.68;;
37241;SDS011;23135;51.078;12.108;2023-05-07T08:03:33;16.20;;;8.02;;
37241;SDS011;23135;51.078;12.108;2023-05-07T08:06:00;13.02;;;8.73;;
37241;SDS011;23135;51.078;12.108;2023-05-07T08:08:25;13.88;;;8.63;;
37241;SDS011;23135;51.078;12.108;2023-05-07T08:10:51;12.23;;;8.00;;
37241;SDS011;23135;51.078;12.108;2023-05-07T08:13:17;14.23;;;8.23;;
37241;SDS011;23135;51.078;12.108;2023-05-07T08:15:43;10.38;;;7.68;;
37241;SDS011;23135;51.078;12.108;2023-05-07T08:18:08;10.80;;;7.22;;
37241;SDS011;23135;51.078;12.108;2023-05-07T08:20:34;12.50;;;8.45;;
37241;SDS011;23135;51.078;12.108;2023-05-07T08:23:04;11.00;;;7.82;;
37241;SDS011;23135;51.078;12.108;2023-05-07T08:25:32;12.23;;;7.57;;
37241;SDS011;23135;51.078;12.108;2023-05-07T08:27:58;10.32;;;6.70;;
37241;SDS011;23135;51.078;12.108;2023-05-07T08:30:24;14.27;;;7.68;;
37241;SDS011;23135;51.078;12.108;2023-05-07T08:32:49;9.93;;;7.13;;
37241;SDS011;23135;51.078;12.108;2023-05-07T08:35:15;11.15;;;6.82;;
37241;SDS011;23135;51.078;12.108;2023-05-07T08:37:40;9.88;;;7.22;;
37241;SDS011;23135;51.078;12.108;2023-05-07T08:40:06;11.75;;;6.97;;
37241;SDS011;23135;51.078;12.108;2023-05-07T08:42:33;8.50;;;5.90;;
37241;SDS011;23135;51.078;12.108;2023-05-07T08:45:01;8.80;;;5.78;;
37241;SDS011;23135;51.078;12.108;2023-05-07T08:47:32;7.30;;;5.13;;
37241;SDS011;23135;51.078;12.108;2023-05-07T08:50:03;8.63;;;4.88;;
37241;SDS011;23135;51.078;12.108;2023-05-07T08:52:30;9.25;;;5.90;;
37241;SDS011;23135;51.078;12.108;2023-05-07T08:54:56;12.80;;;5.30;;
37241;SDS011;23135;51.078;12.108;2023-05-07T08:57:22;9.02;;;5.45;;
37241;SDS011;23135;51.078;12.108;2023-05-07T08:59:49;10.70;;;5.72;;
37241;SDS011;23135;51.078;12.108;2023-05-07T09:02:15;7.72;;;5.38;;
37241;SDS011;23135;51.078;12.108;2023-05-07T09:04:41;9.05;;;6.00;;
37241;SDS011;23135;51.078;12.108;2023-05-07T09:07:07;12.48;;;6.47;;
37241;SDS011;23135;51.078;12.108;2023-05-07T09:09:33;10.75;;;6.47;;
37241;SDS011;23135;51.078;12.108;2023-05-07T09:11:59;8.15;;;5.85;;
37241;SDS011;23135;51.078;12.108;2023-05-07T09:14:25;10.68;;;6.15;;
37241;SDS011;23135;51.078;12.108;2023-05-07T09:16:54;6.50;;;5.03;;
37241;SDS011;23135;51.078;12.108;2023-05-07T09:19:23;7.53;;;5.95;;
37241;SDS011;23135;51.078;12.108;2023-05-07T09:21:49;8.38;;;5.55;;
37241;SDS011;23135;51.078;12.108;2023-05-07T09:24:22;9.50;;;5.65;;
37241;SDS011;23135;51.078;12.108;2023-05-07T09:26:47;10.55;;;6.75;;
37241;SDS011;23135;51.078;12.108;2023-05-07T09:29:13;9.50;;;5.70;;
37241;SDS011;23135;51.078;12.108;2023-05-07T09:31:40;11.35;;;6.65;;
37241;SDS011;23135;51.078;12.108;2023-05-07T09:34:06;9.55;;;6.03;;
37241;SDS011;23135;51.078;12.108;2023-05-07T09:36:32;10.43;;;5.75;;
37241;SDS011;23135;51.078;12.108;2023-05-07T09:39:01;9.05;;;6.10;;
37241;SDS011;23135;51.078;12.108;2023-05-07T09:41:27;17.52;;;7.05;;
37241;SDS011;23135;51.078;12.108;2023-05-07T09:43:55;7.18;;;4.68;;
37241;SDS011;23135;51.078;12.108;2023-05-07T09:46:24;8.07;;;5.35;;
37241;SDS011;23135;51.078;12.108;2023-05-07T09:48:55;8.63;;;5.38;;
37241;SDS011;23135;51.078;12.108;2023-05-07T09:51:30;7.95;;;6.13;;
37241;SDS011;23135;51.078;12.108;2023-05-07T09:53:56;9.30;;;6.40;;
37241;SDS011;23135;51.078;12.108;2023-05-07T09:56:25;7.65;;;5.47;;
37241;SDS011;23135;51.078;12.108;2023-05-07T09:58:52;9.95;;;5.47;;
37241;SDS011;23135;51.078;12.108;2023-05-07T10:01:20;6.82;;;5.43;;
37241;SDS011;23135;51.078;12.108;2023-05-07T10:03:47;6.70;;;5.15;;
37241;SDS011;23135;51.078;12.108;2023-05-07T10:06:15;6.78;;;5.13;;
37241;SDS011;23135;51.078;12.108;2023-05-07T10:08:42;8.35;;;5.22;;
37241;SDS011;23135;51.078;12.108;2023-05-07T10:11:08;14.45;;;6.93;;
37241;SDS011;23135;51.078;12.108;2023-05-07T10:13:34;5.63;;;4.57;;
37241;SDS011;23135;51.078;12.108;2023-05-07T10:16:01;7.07;;;4.93;;
37241;SDS011;23135;51.078;12.108;2023-05-07T10:18:29;8.35;;;5.13;;
37241;SDS011;23135;51.078;12.108;2023-05-07T10:21:02;10.73;;;5.13;;
37241;SDS011;23135;51.078;12.108;2023-05-07T10:23:33;7.25;;;5.00;;
37241;SDS011;23135;51.078;12.108;2023-05-07T10:25:59;5.30;;;3.72;;
37241;SDS011;23135;51.078;12.108;2023-05-07T10:28:29;6.63;;;4.88;;
37241;SDS011;23135;51.078;12.108;2023-05-07T10:33:53;5.07;;;3.60;;
37241;SDS011;23135;51.078;12.108;2023-05-07T10:36:21;7.00;;;4.93;;
37241;SDS011;23135;51.078;12.108;2023-05-07T10:38:48;4.28;;;3.88;;
37241;SDS011;23135;51.078;12.108;2023-05-07T10:41:14;5.05;;;4.13;;
37241;SDS011;23135;51.078;12.108;2023-05-07T10:43:42;6.45;;;3.85;;
37241;SDS011;23135;51.078;12.108;2023-05-07T10:46:10;4.22;;;3.60;;
37241;SDS011;23135;51.078;12.108;2023-05-07T10:51:28;6.55;;;4.43;;
37241;SDS011;23135;51.078;12.108;2023-05-07T10:54:18;6.30;;;4.45;;
37241;SDS011;23135;51.078;12.108;2023-05-07T10:56:44;8.57;;;4.85;;
37241;SDS011;23135;51.078;12.108;2023-05-07T11:02:00;8.73;;;4.93;;
37241;SDS011;23135;51.078;12.108;2023-05-07T11:04:28;8.05;;;4.00;;
37241;SDS011;23135;51.078;12.108;2023-05-07T11:15:02;6.55;;;4.15;;
37241;SDS011;23135;51.078;12.108;2023-05-07T11:17:32;5.40;;;4.03;;
37241;SDS011;23135;51.078;12.108;2023-05-07T11:19:59;7.85;;;4.45;;
37241;SDS011;23135;51.078;12.108;2023-05-07T11:25:05;4.22;;;2.85;;
37241;SDS011;23135;51.078;12.108;2023-05-07T11:27:31;4.82;;;3.53;;
37241;SDS011;23135;51.078;12.108;2023-05-07T11:29:57;9.95;;;5.03;;
37241;SDS011;23135;51.078;12.108;2023-05-07T11:32:23;5.85;;;3.95;;
37241;SDS011;23135;51.078;12.108;2023-05-07T11:34:53;6.60;;;4.57;;
37241;SDS011;23135;51.078;12.108;2023-05-07T11:37:23;10.85;;;5.10;;
37241;SDS011;23135;51.078;12.108;2023-05-07T11:39:50;7.72;;;4.28;;
37241;SDS011;23135;51.078;12.108;2023-05-07T11:42:29;10.93;;;3.70;;
37241;SDS011;23135;51.078;12.108;2023-05-07T11:44:59;4.38;;;3.97;;
37241;SDS011;23135;51.078;12.108;2023-05-07T11:47:25;4.70;;;3.85;;
37241;SDS011;23135;51.078;12.108;2023-05-07T11:49:52;4.57;;;3.53;;
37241;SDS011;23135;51.078;12.108;2023-05-07T11:52:19;6.47;;;4.65;;
37241;SDS011;23135;51.078;12.108;2023-05-07T11:54:49;5.10;;;4.00;;
37241;SDS011;23135;51.078;12.108;2023-05-07T11:57:16;4.75;;;4.22;;
37241;SDS011;23135;51.078;12.108;2023-05-07T11:59:41;9.95;;;3.38;;
37241;SDS011;23135;51.078;12.108;2023-05-07T12:02:09;5.90;;;3.58;;
37241;SDS011;23135;51.078;12.108;2023-05-07T12:04:35;6.05;;;3.55;;
37241;SDS011;23135;51.078;12.108;2023-05-07T12:07:00;4.38;;;2.97;;
37241;SDS011;23135;51.078;12.108;2023-05-07T12:09:26;3.80;;;2.97;;
37241;SDS011;23135;51.078;12.108;2023-05-07T12:11:52;3.03;;;2.25;;
37241;SDS011;23135;51.078;12.108;2023-05-07T12:14:18;3.00;;;2.40;;
37241;SDS011;23135;51.078;12.108;2023-05-07T12:16:44;3.97;;;3.22;;
37241;SDS011;23135;51.078;12.108;2023-05-07T12:19:10;2.47;;;2.00;;
37241;SDS011;23135;51.078;12.108;2023-05-07T12:21:37;4.00;;;2.85;;
37241;SDS011;23135;51.078;12.108;2023-05-07T12:24:04;4.72;;;2.30;;
37241;SDS011;23135;51.078;12.108;2023-05-07T12:26:30;2.90;;;2.58;;
37241;SDS011;23135;51.078;12.108;2023-05-07T12:28:59;3.65;;;2.30;;
37241;SDS011;23135;51.078;12.108;2023-05-07T12:31:27;2.88;;;2.60;;
37241;SDS011;23135;51.078;12.108;2023-05-07T12:33:53;3.25;;;2.10;;
37241;SDS011;23135;51.078;12.108;2023-05-07T12:36:19;2.15;;;1.45;;
37241;SDS011;23135;51.078;12.108;2023-05-07T12:38:46;2.55;;;1.58;;
37241;SDS011;23135;51.078;12.108;2023-05-07T12:41:15;3.35;;;1.38;;
37241;SDS011;23135;51.078;12.108;2023-05-07T12:43:42;3.70;;;1.33;;
37241;SDS011;23135;51.078;12.108;2023-05-07T12:46:09;1.40;;;1.33;;
37241;SDS011;23135;51.078;12.108;2023-05-07T12:48:38;2.15;;;1.55;;
37241;SDS011;23135;51.078;12.108;2023-05-07T12:51:08;5.50;;;1.13;;
37241;SDS011;23135;51.078;12.108;2023-05-07T12:53:39;2.00;;;1.85;;
37241;SDS011;23135;51.078;12.108;2023-05-07T12:56:07;5.32;;;2.47;;
37241;SDS011;23135;51.078;12.108;2023-05-07T12:58:33;2.47;;;2.28;;
37241;SDS011;23135;51.078;12.108;2023-05-07T13:01:01;2.53;;;2.25;;
37241;SDS011;23135;51.078;12.108;2023-05-07T13:03:31;2.08;;;1.95;;
37241;SDS011;23135;51.078;12.108;2023-05-07T13:06:04;2.67;;;1.90;;
37241;SDS011;23135;51.078;12.108;2023-05-07T13:08:40;7.50;;;2.33;;
37241;SDS011;23135;51.078;12.108;2023-05-07T13:11:08;4.15;;;3.70;;
37241;SDS011;23135;51.078;12.108;2023-05-07T13:13:35;7.15;;;4.25;;
37241;SDS011;23135;51.078;12.108;2023-05-07T13:16:02;5.05;;;4.32;;
37241;SDS011;23135;51.078;12.108;2023-05-07T13:18:29;3.22;;;3.03;;
37241;SDS011;23135;51.078;12.108;2023-05-07T13:20:55;3.92;;;3.63;;
37241;SDS011;23135;51.078;12.108;2023-05-07T13:23:21;4.03;;;3.22;;
37241;SDS011;23135;51.078;12.108;2023-05-07T13:25:47;3.65;;;3.35;;
37241;SDS011;23135;51.078;12.108;2023-05-07T13:28:14;4.22;;;3.30;;
37241;SDS011;23135;51.078;12.108;2023-05-07T13:30:39;11.52;;;3.50;;
37241;SDS011;23135;51.078;12.108;2023-05-07T13:33:05;3.28;;;2.97;;
37241;SDS011;23135;51.078;12.108;2023-05-07T13:35:32;4.85;;;3.72;;
37241;SDS011;23135;51.078;12.108;2023-05-07T13:37:58;6.85;;;3.03;;
37241;SDS011;23135;51.078;12.108;2023-05-07T13:40:23;4.38;;;3.25;;
37241;SDS011;23135;51.078;12.108;2023-05-07T13:42:49;5.07;;;3.00;;
37241;SDS011;23135;51.078;12.108;2023-05-07T13:45:16;3.78;;;3.28;;
37241;SDS011;23135;51.078;12.108;2023-05-07T13:47:45;4.07;;;3.42;;
37241;SDS011;23135;51.078;12.108;2023-05-07T13:50:11;3.60;;;3.30;;
37241;SDS011;23135;51.078;12.108;2023-05-07T13:52:41;4.50;;;2.65;;
37241;SDS011;23135;51.078;12.108;2023-05-07T13:55:08;4.82;;;3.63;;
37241;SDS011;23135;51.078;12.108;2023-05-07T13:57:35;7.75;;;3.50;;
37241;SDS011;23135;51.078;12.108;2023-05-07T14:00:01;4.60;;;3.30;;
37241;SDS011;23135;51.078;12.108;2023-05-07T14:02:29;3.30;;;3.00;;
37241;SDS011;23135;51.078;12.108;2023-05-07T14:04:55;4.63;;;3.08;;
37241;SDS011;23135;51.078;12.108;2023-05-07T14:07:21;3.80;;;3.13;;
37241;SDS011;23135;51.078;12.108;2023-05-07T14:09:46;3.20;;;2.90;;
37241;SDS011;23135;51.078;12.108;2023-05-07T14:12:12;3.95;;;3.10;;
37241;SDS011;23135;51.078;12.108;2023-05-07T14:14:37;4.43;;;3.50;;
37241;SDS011;23135;51.078;12.108;2023-05-07T14:17:03;7.25;;;3.63;;
37241;SDS011;23135;51.078;12.108;2023-05-07T14:19:28;9.60;;;3.40;;
37241;SDS011;23135;51.078;12.108;2023-05-07T14:21:54;3.33;;;2.90;;
37241;SDS011;23135;51.078;12.108;2023-05-07T14:24:20;3.42;;;3.00;;
37241;SDS011;23135;51.078;12.108;2023-05-07T14:26:45;3.35;;;3.05;;
37241;SDS011;23135;51.078;12.108;2023-05-07T14:29:11;4.28;;;3.83;;
37241;SDS011;23135;51.078;12.108;2023-05-07T14:31:37;2.80;;;2.60;;
37241;SDS011;23135;51.078;12.108;2023-05-07T14:34:02;6.05;;;3.78;;
37241;SDS011;23135;51.078;12.108;2023-05-07T14:36:28;5.13;;;3.33;;